sensor_id;sensor_type;location;lat;lon;timestamp;temperature;humidity
10492;DHT22;5293;51.464;-2.566;2024-02-28T00:00:30;9.50;99.90
10492;DHT22;5293;51.464;-2.566;2024-02-28T00:02:55;9.60;99.90
10492;DHT22;5293;51.464;-2.566;2024-02-28T00:05:21;9.50;99.90
10492;DHT22;5293;51.464;-2.566;2024-02-28T00:07:47;9.50;99.90
10492;DHT22;5293;51.464;-2.566;2024-02-28T00:10:13;9.50;99.90
10492;DHT22;5293;51.464;-2.566;2024-02-28T00:12:39;9.50;99.90
10492;DHT22;5293;51.464;-2.566;2024-02-28T00:15:06;9.50;99.90
10492;DHT22;5293;51.464;-2.566;2024-02-28T00:17:38;9.50;99.90
10492;DHT22;5293;51.464;-2.566;2024-02-28T00:20:05;9.50;99.90
10492;DHT22;5293;51.464;-2.566;2024-02-28T00:22:31;9.50;99.90
10492;DHT22;5293;51.464;-2.566;2024-02-28T00:24:57;9.60;99.90
10492;DHT22;5293;51.464;-2.566;2024-02-28T00:27:22;9.60;99.90
10492;DHT22;5293;51.464;-2.566;2024-02-28T00:29:49;9.60;99.90
10492;DHT22;5293;51.464;-2.566;2024-02-28T00:32:15;9.60;99.90
10492;DHT22;5293;51.464;-2.566;2024-02-28T00:34:40;9.60;99.90
10492;DHT22;5293;51.464;-2.566;2024-02-28T00:37:06;9.60;99.90
10492;DHT22;5293;51.464;-2.566;2024-02-28T00:39:31;9.50;99.90
10492;DHT22;5293;51.464;-2.566;2024-02-28T00:41:57;9.50;99.90
10492;DHT22;5293;51.464;-2.566;2024-02-28T00:44:23;9.50;99.90
10492;DHT22;5293;51.464;-2.566;2024-02-28T00:46:49;9.50;99.90
10492;DHT22;5293;51.464;-2.566;2024-02-28T00:49:14;9.60;99.90
10492;DHT22;5293;51.464;-2.566;2024-02-28T00:51:40;9.50;99.90
10492;DHT22;5293;51.464;-2.566;2024-02-28T00:54:06;9.40;99.90
10492;DHT22;5293;51.464;-2.566;2024-02-28T00:56:31;9.40;99.90
10492;DHT22;5293;51.464;-2.566;2024-02-28T00:58:57;9.30;99.90
10492;DHT22;5293;51.464;-2.566;2024-02-28T01:01:23;9.40;99.90
10492;DHT22;5293;51.464;-2.566;2024-02-28T01:03:48;9.40;99.90
10492;DHT22;5293;51.464;-2.566;2024-02-28T01:06:14;9.40;99.90
10492;DHT22;5293;51.464;-2.566;2024-02-28T01:08:42;9.40;99.90
10492;DHT22;5293;51.464;-2.566;2024-02-28T01:11:07;9.40;99.90
10492;DHT22;5293;51.464;-2.566;2024-02-28T01:13:33;9.40;99.90
10492;DHT22;5293;51.464;-2.566;2024-02-28T01:15:58;9.30;99.90
10492;DHT22;5293;51.464;-2.566;2024-02-28T01:18:25;9.30;99.90
10492;DHT22;5293;51.464;-2.566;2024-02-28T01:20:51;9.30;99.90
10492;DHT22;5293;51.464;-2.566;2024-02-28T01:23:19;9.40;99.90
10492;DHT22;5293;51.464;-2.566;2024-02-28T01:25:44;9.30;99.90
10492;DHT22;5293;51.464;-2.566;2024-02-28T01:28:10;9.30;99.90
10492;DHT22;5293;51.464;-2.566;2024-02-28T01:30:36;9.30;99.90
10492;DHT22;5293;51.464;-2.566;2024-02-28T01:33:01;9.30;99.90
10492;DHT22;5293;51.464;-2.566;2024-02-28T01:35:27;9.30;99.90
10492;DHT22;5293;51.464;-2.566;2024-02-28T01:37:53;9.20;99.90
10492;DHT22;5293;51.464;-2.566;2024-02-28T01:40:18;9.20;99.90
10492;DHT22;5293;51.464;-2.566;2024-02-28T01:42:44;9.30;99.90
10492;DHT22;5293;51.464;-2.566;2024-02-28T01:45:13;9.30;99.90
10492;DHT22;5293;51.464;-2.566;2024-02-28T01:47:41;9.30;99.90
10492;DHT22;5293;51.464;-2.566;2024-02-28T01:50:08;9.20;99.90
10492;DHT22;5293;51.464;-2.566;2024-02-28T01:52:35;9.20;99.90
10492;DHT22;5293;51.464;-2.566;2024-02-28T01:55:01;9.30;99.90
10492;DHT22;5293;51.464;-2.566;2024-02-28T01:57:28;9.30;99.90
10492;DHT22;5293;51.464;-2.566;2024-02-28T01:59:53;9.30;99.90
10492;DHT22;5293;51.464;-2.566;2024-02-28T02:02:20;9.30;99.90
10492;DHT22;5293;51.464;-2.566;2024-02-28T02:04:46;9.20;99.90
10492;DHT22;5293;51.464;-2.566;2024-02-28T02:07:12;9.20;99.90
10492;DHT22;5293;51.464;-2.566;2024-02-28T02:09:38;9.20;99.90
10492;DHT22;5293;51.464;-2.566;2024-02-28T02:12:04;9.30;99.90
10492;DHT22;5293;51.464;-2.566;2024-02-28T02:14:29;9.30;99.90
10492;DHT22;5293;51.464;-2.566;2024-02-28T02:16:55;9.20;99.90
10492;DHT22;5293;51.464;-2.566;2024-02-28T02:19:21;9.20;99.90
10492;DHT22;5293;51.464;-2.566;2024-02-28T02:21:54;9.30;99.90
10492;DHT22;5293;51.464;-2.566;2024-02-28T02:24:22;9.30;99.90
10492;DHT22;5293;51.464;-2.566;2024-02-28T02:26:48;9.30;99.90
10492;DHT22;5293;51.464;-2.566;2024-02-28T02:29:16;9.20;99.90
10492;DHT22;5293;51.464;-2.566;2024-02-28T02:31:42;9.20;99.90
10492;DHT22;5293;51.464;-2.566;2024-02-28T02:34:08;9.30;99.90
10492;DHT22;5293;51.464;-2.566;2024-02-28T02:36:33;9.20;99.90
10492;DHT22;5293;51.464;-2.566;2024-02-28T02:38:59;9.20;99.90
10492;DHT22;5293;51.464;-2.566;2024-02-28T02:41:25;9.30;99.90
10492;DHT22;5293;51.464;-2.566;2024-02-28T02:43:51;9.20;99.90
10492;DHT22;5293;51.464;-2.566;2024-02-28T02:46:16;9.30;99.90
10492;DHT22;5293;51.464;-2.566;2024-02-28T02:48:42;9.30;99.90
10492;DHT22;5293;51.464;-2.566;2024-02-28T02:51:08;9.30;99.90
10492;DHT22;5293;51.464;-2.566;2024-02-28T02:53:34;9.20;99.90
10492;DHT22;5293;51.464;-2.566;2024-02-28T02:55:59;9.30;99.90
10492;DHT22;5293;51.464;-2.566;2024-02-28T02:58:25;9.30;99.90
10492;DHT22;5293;51.464;-2.566;2024-02-28T03:00:51;9.30;99.90
10492;DHT22;5293;51.464;-2.566;2024-02-28T03:03:16;9.30;99.90
10492;DHT22;5293;51.464;-2.566;2024-02-28T03:05:42;9.30;99.90
10492;DHT22;5293;51.464;-2.566;2024-02-28T03:08:08;9.30;99.90
10492;DHT22;5293;51.464;-2.566;2024-02-28T03:10:33;9.30;99.90
10492;DHT22;5293;51.464;-2.566;2024-02-28T03:12:59;9.30;99.90
10492;DHT22;5293;51.464;-2.566;2024-02-28T03:15:26;9.30;99.90
10492;DHT22;5293;51.464;-2.566;2024-02-28T03:17:51;9.30;99.90
10492;DHT22;5293;51.464;-2.566;2024-02-28T03:20:17;9.40;99.90
10492;DHT22;5293;51.464;-2.566;2024-02-28T03:22:43;9.30;99.90
10492;DHT22;5293;51.464;-2.566;2024-02-28T03:25:09;9.40;99.90
10492;DHT22;5293;51.464;-2.566;2024-02-28T03:27:34;9.40;99.90
10492;DHT22;5293;51.464;-2.566;2024-02-28T03:30:00;9.40;99.90
10492;DHT22;5293;51.464;-2.566;2024-02-28T03:32:27;9.40;99.90
10492;DHT22;5293;51.464;-2.566;2024-02-28T03:34:52;9.40;99.90
10492;DHT22;5293;51.464;-2.566;2024-02-28T03:37:18;9.40;99.90
10492;DHT22;5293;51.464;-2.566;2024-02-28T03:39:44;9.40;99.90
10492;DHT22;5293;51.464;-2.566;2024-02-28T03:42:09;9.40;99.90
10492;DHT22;5293;51.464;-2.566;2024-02-28T03:44:35;9.30;99.90
10492;DHT22;5293;51.464;-2.566;2024-02-28T03:47:01;9.30;99.90
10492;DHT22;5293;51.464;-2.566;2024-02-28T03:49:26;9.30;99.90
10492;DHT22;5293;51.464;-2.566;2024-02-28T03:51:52;9.30;99.90
10492;DHT22;5293;51.464;-2.566;2024-02-28T03:54:17;9.30;99.90
10492;DHT22;5293;51.464;-2.566;2024-02-28T03:56:43;9.30;99.90
10492;DHT22;5293;51.464;-2.566;2024-02-28T03:59:09;9.30;99.90
10492;DHT22;5293;51.464;-2.566;2024-02-28T04:01:34;9.30;99.90
10492;DHT22;5293;51.464;-2.566;2024-02-28T04:04:00;9.30;99.90
10492;DHT22;5293;51.464;-2.566;2024-02-28T04:06:26;9.20;99.90
10492;DHT22;5293;51.464;-2.566;2024-02-28T04:08:51;9.20;99.90
10492;DHT22;5293;51.464;-2.566;2024-02-28T04:11:17;9.20;99.90
10492;DHT22;5293;51.464;-2.566;2024-02-28T04:13:43;9.20;99.90
10492;DHT22;5293;51.464;-2.566;2024-02-28T04:16:10;9.10;99.90
10492;DHT22;5293;51.464;-2.566;2024-02-28T04:18:36;9.10;99.90
10492;DHT22;5293;51.464;-2.566;2024-02-28T04:21:01;9.00;99.90
10492;DHT22;5293;51.464;-2.566;2024-02-28T04:23:27;9.10;99.90
10492;DHT22;5293;51.464;-2.566;2024-02-28T04:25:53;9.00;99.90
10492;DHT22;5293;51.464;-2.566;2024-02-28T04:28:18;9.10;99.90
10492;DHT22;5293;51.464;-2.566;2024-02-28T04:30:44;9.10;99.90
10492;DHT22;5293;51.464;-2.566;2024-02-28T04:33:10;9.10;99.90
10492;DHT22;5293;51.464;-2.566;2024-02-28T04:35:35;9.00;99.90
10492;DHT22;5293;51.464;-2.566;2024-02-28T04:38:01;9.00;99.90
10492;DHT22;5293;51.464;-2.566;2024-02-28T04:40:27;9.00;99.90
10492;DHT22;5293;51.464;-2.566;2024-02-28T04:42:52;9.00;99.90
10492;DHT22;5293;51.464;-2.566;2024-02-28T04:45:18;9.00;99.90
10492;DHT22;5293;51.464;-2.566;2024-02-28T04:47:44;9.00;99.90
10492;DHT22;5293;51.464;-2.566;2024-02-28T04:50:10;9.10;99.90
10492;DHT22;5293;51.464;-2.566;2024-02-28T04:52:35;9.00;99.90
10492;DHT22;5293;51.464;-2.566;2024-02-28T04:55:01;9.00;99.90
10492;DHT22;5293;51.464;-2.566;2024-02-28T04:57:27;9.00;99.90
10492;DHT22;5293;51.464;-2.566;2024-02-28T04:59:53;9.10;99.90
10492;DHT22;5293;51.464;-2.566;2024-02-28T05:02:18;9.00;99.90
10492;DHT22;5293;51.464;-2.566;2024-02-28T05:04:44;9.10;99.90
10492;DHT22;5293;51.464;-2.566;2024-02-28T05:07:10;9.00;99.90
10492;DHT22;5293;51.464;-2.566;2024-02-28T05:09:35;9.00;99.90
10492;DHT22;5293;51.464;-2.566;2024-02-28T05:12:02;9.00;99.90
10492;DHT22;5293;51.464;-2.566;2024-02-28T05:14:28;9.00;99.90
10492;DHT22;5293;51.464;-2.566;2024-02-28T05:16:53;8.90;99.90
10492;DHT22;5293;51.464;-2.566;2024-02-28T05:19:19;8.90;99.90
10492;DHT22;5293;51.464;-2.566;2024-02-28T05:21:45;8.90;99.90
10492;DHT22;5293;51.464;-2.566;2024-02-28T05:24:11;8.90;99.90
10492;DHT22;5293;51.464;-2.566;2024-02-28T05:26:38;8.90;99.90
10492;DHT22;5293;51.464;-2.566;2024-02-28T05:29:04;8.90;99.90
10492;DHT22;5293;51.464;-2.566;2024-02-28T05:31:30;8.90;99.90
10492;DHT22;5293;51.464;-2.566;2024-02-28T05:34:00;8.90;99.90
10492;DHT22;5293;51.464;-2.566;2024-02-28T05:36:28;8.90;99.90
10492;DHT22;5293;51.464;-2.566;2024-02-28T05:38:55;8.90;99.90
10492;DHT22;5293;51.464;-2.566;2024-02-28T05:41:21;8.90;99.90
10492;DHT22;5293;51.464;-2.566;2024-02-28T05:43:47;8.90;99.90
10492;DHT22;5293;51.464;-2.566;2024-02-28T05:46:14;8.90;99.90
10492;DHT22;5293;51.464;-2.566;2024-02-28T05:48:43;8.90;99.90
10492;DHT22;5293;51.464;-2.566;2024-02-28T05:51:10;8.90;99.90
10492;DHT22;5293;51.464;-2.566;2024-02-28T05:53:36;8.80;99.90
10492;DHT22;5293;51.464;-2.566;2024-02-28T05:56:11;8.80;99.90
10492;DHT22;5293;51.464;-2.566;2024-02-28T05:58:44;8.80;99.90
10492;DHT22;5293;51.464;-2.566;2024-02-28T06:01:10;8.80;99.90
10492;DHT22;5293;51.464;-2.566;2024-02-28T06:03:37;8.70;99.90
10492;DHT22;5293;51.464;-2.566;2024-02-28T06:06:03;8.70;99.90
10492;DHT22;5293;51.464;-2.566;2024-02-28T06:08:34;8.80;99.90
10492;DHT22;5293;51.464;-2.566;2024-02-28T06:11:01;8.80;99.90
10492;DHT22;5293;51.464;-2.566;2024-02-28T06:13:27;8.80;99.90
10492;DHT22;5293;51.464;-2.566;2024-02-28T06:15:53;8.80;99.90
10492;DHT22;5293;51.464;-2.566;2024-02-28T06:18:19;8.80;99.90
10492;DHT22;5293;51.464;-2.566;2024-02-28T06:20:45;8.80;99.90
10492;DHT22;5293;51.464;-2.566;2024-02-28T06:23:10;8.80;99.90
10492;DHT22;5293;51.464;-2.566;2024-02-28T06:25:36;8.80;99.90
10492;DHT22;5293;51.464;-2.566;2024-02-28T06:28:02;8.90;99.90
10492;DHT22;5293;51.464;-2.566;2024-02-28T06:30:34;8.80;99.90
10492;DHT22;5293;51.464;-2.566;2024-02-28T06:33:00;8.80;99.90
10492;DHT22;5293;51.464;-2.566;2024-02-28T06:35:26;8.80;99.90
10492;DHT22;5293;51.464;-2.566;2024-02-28T06:37:51;8.80;99.90
10492;DHT22;5293;51.464;-2.566;2024-02-28T06:40:17;8.80;99.90
10492;DHT22;5293;51.464;-2.566;2024-02-28T06:42:43;8.80;99.90
10492;DHT22;5293;51.464;-2.566;2024-02-28T06:45:09;8.90;99.90
10492;DHT22;5293;51.464;-2.566;2024-02-28T06:47:35;8.80;99.90
10492;DHT22;5293;51.464;-2.566;2024-02-28T06:50:03;8.70;99.90
10492;DHT22;5293;51.464;-2.566;2024-02-28T06:52:29;8.70;99.90
10492;DHT22;5293;51.464;-2.566;2024-02-28T06:54:55;8.70;99.90
10492;DHT22;5293;51.464;-2.566;2024-02-28T06:57:21;8.70;99.90
10492;DHT22;5293;51.464;-2.566;2024-02-28T06:59:46;8.60;99.90
10492;DHT22;5293;51.464;-2.566;2024-02-28T07:02:12;8.60;99.90
10492;DHT22;5293;51.464;-2.566;2024-02-28T07:04:38;8.60;99.90
10492;DHT22;5293;51.464;-2.566;2024-02-28T07:07:04;8.50;99.90
10492;DHT22;5293;51.464;-2.566;2024-02-28T07:09:31;8.50;99.90
10492;DHT22;5293;51.464;-2.566;2024-02-28T07:11:58;8.60;99.90
10492;DHT22;5293;51.464;-2.566;2024-02-28T07:14:24;8.60;99.90
10492;DHT22;5293;51.464;-2.566;2024-02-28T07:16:50;8.60;99.90
10492;DHT22;5293;51.464;-2.566;2024-02-28T07:19:17;8.70;99.90
10492;DHT22;5293;51.464;-2.566;2024-02-28T07:21:44;8.60;99.90
10492;DHT22;5293;51.464;-2.566;2024-02-28T07:24:10;8.60;99.90
10492;DHT22;5293;51.464;-2.566;2024-02-28T07:26:36;8.60;99.90
10492;DHT22;5293;51.464;-2.566;2024-02-28T07:29:01;8.60;99.90
10492;DHT22;5293;51.464;-2.566;2024-02-28T07:31:27;8.60;99.90
10492;DHT22;5293;51.464;-2.566;2024-02-28T07:33:53;8.70;99.90
10492;DHT22;5293;51.464;-2.566;2024-02-28T07:36:19;8.70;99.90
10492;DHT22;5293;51.464;-2.566;2024-02-28T07:38:45;8.70;99.90
10492;DHT22;5293;51.464;-2.566;2024-02-28T07:41:11;8.70;99.90
10492;DHT22;5293;51.464;-2.566;2024-02-28T07:43:37;8.80;99.90
10492;DHT22;5293;51.464;-2.566;2024-02-28T07:46:12;8.80;99.90
10492;DHT22;5293;51.464;-2.566;2024-02-28T07:48:38;8.80;99.90
10492;DHT22;5293;51.464;-2.566;2024-02-28T07:51:07;8.80;99.90
10492;DHT22;5293;51.464;-2.566;2024-02-28T07:53:33;8.90;99.90
10492;DHT22;5293;51.464;-2.566;2024-02-28T07:55:59;8.90;99.90
10492;DHT22;5293;51.464;-2.566;2024-02-28T07:58:24;8.90;99.90
10492;DHT22;5293;51.464;-2.566;2024-02-28T08:00:51;8.80;99.90
10492;DHT22;5293;51.464;-2.566;2024-02-28T08:03:18;8.80;99.90
10492;DHT22;5293;51.464;-2.566;2024-02-28T08:05:44;8.80;99.90
10492;DHT22;5293;51.464;-2.566;2024-02-28T08:08:10;8.80;99.90
10492;DHT22;5293;51.464;-2.566;2024-02-28T08:10:37;8.80;99.90
10492;DHT22;5293;51.464;-2.566;2024-02-28T08:13:04;8.80;99.90
10492;DHT22;5293;51.464;-2.566;2024-02-28T08:15:30;8.80;99.90
10492;DHT22;5293;51.464;-2.566;2024-02-28T08:17:55;8.80;99.90
10492;DHT22;5293;51.464;-2.566;2024-02-28T08:20:21;8.90;99.90
10492;DHT22;5293;51.464;-2.566;2024-02-28T08:22:47;8.90;99.90
10492;DHT22;5293;51.464;-2.566;2024-02-28T08:25:12;8.90;99.90
10492;DHT22;5293;51.464;-2.566;2024-02-28T08:27:39;8.90;99.90
10492;DHT22;5293;51.464;-2.566;2024-02-28T08:30:06;8.90;99.90
10492;DHT22;5293;51.464;-2.566;2024-02-28T08:32:32;8.90;99.90
10492;DHT22;5293;51.464;-2.566;2024-02-28T08:34:58;9.00;99.90
10492;DHT22;5293;51.464;-2.566;2024-02-28T08:37:24;9.00;99.90
10492;DHT22;5293;51.464;-2.566;2024-02-28T08:39:50;9.10;99.90
10492;DHT22;5293;51.464;-2.566;2024-02-28T08:42:16;9.10;99.90
10492;DHT22;5293;51.464;-2.566;2024-02-28T08:44:41;9.10;99.90
10492;DHT22;5293;51.464;-2.566;2024-02-28T08:47:07;9.10;99.90
10492;DHT22;5293;51.464;-2.566;2024-02-28T08:49:39;9.10;99.90
10492;DHT22;5293;51.464;-2.566;2024-02-28T08:52:04;9.10;99.90
10492;DHT22;5293;51.464;-2.566;2024-02-28T08:54:30;9.10;99.90
10492;DHT22;5293;51.464;-2.566;2024-02-28T08:56:56;9.20;99.90
10492;DHT22;5293;51.464;-2.566;2024-02-28T08:59:22;9.30;99.90
10492;DHT22;5293;51.464;-2.566;2024-02-28T09:01:48;9.30;99.90
10492;DHT22;5293;51.464;-2.566;2024-02-28T09:04:14;9.30;99.90
10492;DHT22;5293;51.464;-2.566;2024-02-28T09:06:40;9.40;99.90
10492;DHT22;5293;51.464;-2.566;2024-02-28T09:09:06;9.50;99.90
10492;DHT22;5293;51.464;-2.566;2024-02-28T09:11:32;9.50;99.90
10492;DHT22;5293;51.464;-2.566;2024-02-28T09:13:58;9.50;99.90
10492;DHT22;5293;51.464;-2.566;2024-02-28T09:16:24;9.50;99.90
10492;DHT22;5293;51.464;-2.566;2024-02-28T09:18:50;9.50;99.90
10492;DHT22;5293;51.464;-2.566;2024-02-28T09:21:15;9.50;99.90
10492;DHT22;5293;51.464;-2.566;2024-02-28T09:23:41;9.60;99.90
10492;DHT22;5293;51.464;-2.566;2024-02-28T09:26:07;9.60;99.90
10492;DHT22;5293;51.464;-2.566;2024-02-28T09:28:33;9.70;99.90
10492;DHT22;5293;51.464;-2.566;2024-02-28T09:30:58;9.70;99.90
10492;DHT22;5293;51.464;-2.566;2024-02-28T09:33:24;9.80;99.90
10492;DHT22;5293;51.464;-2.566;2024-02-28T09:35:50;9.70;99.90
10492;DHT22;5293;51.464;-2.566;2024-02-28T09:38:15;9.70;99.90
10492;DHT22;5293;51.464;-2.566;2024-02-28T09:40:41;9.90;99.90
10492;DHT22;5293;51.464;-2.566;2024-02-28T09:43:15;10.00;99.90
10492;DHT22;5293;51.464;-2.566;2024-02-28T09:45:44;10.00;99.90
10492;DHT22;5293;51.464;-2.566;2024-02-28T09:48:10;10.00;99.90
10492;DHT22;5293;51.464;-2.566;2024-02-28T09:50:39;10.00;99.90
10492;DHT22;5293;51.464;-2.566;2024-02-28T09:53:04;10.00;99.90
10492;DHT22;5293;51.464;-2.566;2024-02-28T09:55:30;10.10;99.90
10492;DHT22;5293;51.464;-2.566;2024-02-28T09:57:57;10.00;99.90
10492;DHT22;5293;51.464;-2.566;2024-02-28T10:00:24;10.10;99.90
10492;DHT22;5293;51.464;-2.566;2024-02-28T10:02:51;10.10;99.90
10492;DHT22;5293;51.464;-2.566;2024-02-28T10:05:18;10.10;99.90
10492;DHT22;5293;51.464;-2.566;2024-02-28T10:07:45;10.20;99.90
10492;DHT22;5293;51.464;-2.566;2024-02-28T10:10:12;10.10;99.90
10492;DHT22;5293;51.464;-2.566;2024-02-28T10:12:41;10.20;99.90
10492;DHT22;5293;51.464;-2.566;2024-02-28T10:15:09;10.20;99.90
10492;DHT22;5293;51.464;-2.566;2024-02-28T10:17:35;10.30;99.90
10492;DHT22;5293;51.464;-2.566;2024-02-28T10:20:01;10.40;99.90
10492;DHT22;5293;51.464;-2.566;2024-02-28T10:22:26;10.40;99.90
10492;DHT22;5293;51.464;-2.566;2024-02-28T10:24:58;10.30;99.90
10492;DHT22;5293;51.464;-2.566;2024-02-28T10:27:24;10.30;99.90
10492;DHT22;5293;51.464;-2.566;2024-02-28T10:29:50;10.30;99.90
10492;DHT22;5293;51.464;-2.566;2024-02-28T10:32:15;10.30;99.90
10492;DHT22;5293;51.464;-2.566;2024-02-28T10:34:42;10.20;99.90
10492;DHT22;5293;51.464;-2.566;2024-02-28T10:37:08;10.20;99.90
10492;DHT22;5293;51.464;-2.566;2024-02-28T10:39:35;10.30;99.90
10492;DHT22;5293;51.464;-2.566;2024-02-28T10:42:02;10.20;99.90
10492;DHT22;5293;51.464;-2.566;2024-02-28T10:44:29;10.20;99.90
10492;DHT22;5293;51.464;-2.566;2024-02-28T10:46:56;10.10;99.90
10492;DHT22;5293;51.464;-2.566;2024-02-28T10:49:22;10.10;99.90
10492;DHT22;5293;51.464;-2.566;2024-02-28T10:51:49;10.10;99.90
10492;DHT22;5293;51.464;-2.566;2024-02-28T10:54:17;10.20;99.90
10492;DHT22;5293;51.464;-2.566;2024-02-28T10:56:45;10.20;99.90
10492;DHT22;5293;51.464;-2.566;2024-02-28T10:59:11;10.40;99.90
10492;DHT22;5293;51.464;-2.566;2024-02-28T11:01:42;10.50;99.90
10492;DHT22;5293;51.464;-2.566;2024-02-28T11:04:11;10.40;99.90
10492;DHT22;5293;51.464;-2.566;2024-02-28T11:06:54;10.40;99.90
10492;DHT22;5293;51.464;-2.566;2024-02-28T11:09:25;10.50;99.90
10492;DHT22;5293;51.464;-2.566;2024-02-28T11:11:53;10.60;99.90
10492;DHT22;5293;51.464;-2.566;2024-02-28T11:14:21;10.60;99.90
10492;DHT22;5293;51.464;-2.566;2024-02-28T11:16:48;10.70;99.90
10492;DHT22;5293;51.464;-2.566;2024-02-28T11:19:24;10.70;99.90
10492;DHT22;5293;51.464;-2.566;2024-02-28T11:21:57;10.70;99.90
10492;DHT22;5293;51.464;-2.566;2024-02-28T11:24:33;10.60;99.90
10492;DHT22;5293;51.464;-2.566;2024-02-28T11:27:00;10.60;99.90
10492;DHT22;5293;51.464;-2.566;2024-02-28T11:29:28;10.50;99.90
10492;DHT22;5293;51.464;-2.566;2024-02-28T11:31:54;10.40;99.90
10492;DHT22;5293;51.464;-2.566;2024-02-28T11:34:21;10.50;99.90
10492;DHT22;5293;51.464;-2.566;2024-02-28T11:36:50;10.50;99.90
10492;DHT22;5293;51.464;-2.566;2024-02-28T11:39:17;10.60;99.90
10492;DHT22;5293;51.464;-2.566;2024-02-28T11:41:43;10.60;99.90
10492;DHT22;5293;51.464;-2.566;2024-02-28T11:44:13;10.60;99.90
10492;DHT22;5293;51.464;-2.566;2024-02-28T11:46:43;10.60;99.90
10492;DHT22;5293;51.464;-2.566;2024-02-28T11:49:10;10.60;99.90
10492;DHT22;5293;51.464;-2.566;2024-02-28T11:51:35;10.60;99.90
10492;DHT22;5293;51.464;-2.566;2024-02-28T11:54:02;10.70;99.90
10492;DHT22;5293;51.464;-2.566;2024-02-28T11:56:27;10.60;99.90
10492;DHT22;5293;51.464;-2.566;2024-02-28T11:58:53;10.60;99.90
10492;DHT22;5293;51.464;-2.566;2024-02-28T12:01:32;10.60;99.90
10492;DHT22;5293;51.464;-2.566;2024-02-28T12:03:58;10.60;99.90
10492;DHT22;5293;51.464;-2.566;2024-02-28T12:06:24;10.60;99.90
10492;DHT22;5293;51.464;-2.566;2024-02-28T12:08:50;10.70;99.90
10492;DHT22;5293;51.464;-2.566;2024-02-28T12:11:16;10.60;99.90
10492;DHT22;5293;51.464;-2.566;2024-02-28T12:13:41;10.60;99.90
10492;DHT22;5293;51.464;-2.566;2024-02-28T12:16:08;10.60;99.90
10492;DHT22;5293;51.464;-2.566;2024-02-28T12:18:35;10.50;99.90
10492;DHT22;5293;51.464;-2.566;2024-02-28T12:21:00;10.60;99.90
10492;DHT22;5293;51.464;-2.566;2024-02-28T12:23:26;10.60;99.90
10492;DHT22;5293;51.464;-2.566;2024-02-28T12:25:52;10.60;99.90
10492;DHT22;5293;51.464;-2.566;2024-02-28T12:28:17;10.60;99.90
10492;DHT22;5293;51.464;-2.566;2024-02-28T12:30:44;10.60;99.90
10492;DHT22;5293;51.464;-2.566;2024-02-28T12:33:13;10.60;99.90
10492;DHT22;5293;51.464;-2.566;2024-02-28T12:35:39;10.60;99.90
10492;DHT22;5293;51.464;-2.566;2024-02-28T12:38:04;10.70;99.90
10492;DHT22;5293;51.464;-2.566;2024-02-28T12:40:31;10.80;99.90
10492;DHT22;5293;51.464;-2.566;2024-02-28T12:42:56;10.90;99.90
10492;DHT22;5293;51.464;-2.566;2024-02-28T12:45:22;10.80;99.90
10492;DHT22;5293;51.464;-2.566;2024-02-28T12:47:48;10.80;99.90
10492;DHT22;5293;51.464;-2.566;2024-02-28T12:50:14;10.80;99.90
10492;DHT22;5293;51.464;-2.566;2024-02-28T12:52:39;10.80;99.90
10492;DHT22;5293;51.464;-2.566;2024-02-28T12:55:05;10.90;99.90
10492;DHT22;5293;51.464;-2.566;2024-02-28T12:57:31;10.90;99.90
10492;DHT22;5293;51.464;-2.566;2024-02-28T12:59:57;10.90;99.90
10492;DHT22;5293;51.464;-2.566;2024-02-28T13:02:22;10.90;99.90
10492;DHT22;5293;51.464;-2.566;2024-02-28T13:04:48;10.80;99.90
10492;DHT22;5293;51.464;-2.566;2024-02-28T13:07:17;10.80;99.90
10492;DHT22;5293;51.464;-2.566;2024-02-28T13:09:44;10.80;99.90
10492;DHT22;5293;51.464;-2.566;2024-02-28T13:12:10;10.80;99.90
10492;DHT22;5293;51.464;-2.566;2024-02-28T13:14:36;10.90;99.90
10492;DHT22;5293;51.464;-2.566;2024-02-28T13:17:01;10.90;99.90
10492;DHT22;5293;51.464;-2.566;2024-02-28T13:19:29;10.90;99.90
10492;DHT22;5293;51.464;-2.566;2024-02-28T13:21:54;10.80;99.90
10492;DHT22;5293;51.464;-2.566;2024-02-28T13:24:21;10.80;99.90
10492;DHT22;5293;51.464;-2.566;2024-02-28T13:26:47;10.80;99.90
10492;DHT22;5293;51.464;-2.566;2024-02-28T13:29:12;10.90;99.90
10492;DHT22;5293;51.464;-2.566;2024-02-28T13:31:38;10.90;99.90
10492;DHT22;5293;51.464;-2.566;2024-02-28T13:34:04;10.90;99.90
10492;DHT22;5293;51.464;-2.566;2024-02-28T13:36:30;10.90;99.90
10492;DHT22;5293;51.464;-2.566;2024-02-28T13:38:58;10.90;99.90
10492;DHT22;5293;51.464;-2.566;2024-02-28T13:41:23;10.90;99.90
10492;DHT22;5293;51.464;-2.566;2024-02-28T13:43:49;10.90;99.90
10492;DHT22;5293;51.464;-2.566;2024-02-28T13:46:15;10.90;99.90
10492;DHT22;5293;51.464;-2.566;2024-02-28T13:48:40;11.00;99.90
10492;DHT22;5293;51.464;-2.566;2024-02-28T13:51:06;11.00;99.90
10492;DHT22;5293;51.464;-2.566;2024-02-28T13:53:32;11.00;99.90
10492;DHT22;5293;51.464;-2.566;2024-02-28T13:55:57;11.10;99.90
10492;DHT22;5293;51.464;-2.566;2024-02-28T13:58:23;11.10;99.90
10492;DHT22;5293;51.464;-2.566;2024-02-28T14:00:49;11.10;99.90
10492;DHT22;5293;51.464;-2.566;2024-02-28T14:03:15;11.10;99.90
10492;DHT22;5293;51.464;-2.566;2024-02-28T14:05:41;11.10;99.90
10492;DHT22;5293;51.464;-2.566;2024-02-28T14:08:07;11.00;99.90
10492;DHT22;5293;51.464;-2.566;2024-02-28T14:10:34;11.00;99.90
10492;DHT22;5293;51.464;-2.566;2024-02-28T14:12:59;11.00;99.90
10492;DHT22;5293;51.464;-2.566;2024-02-28T14:15:25;11.00;99.90
10492;DHT22;5293;51.464;-2.566;2024-02-28T14:17:51;11.10;99.90
10492;DHT22;5293;51.464;-2.566;2024-02-28T14:20:17;11.10;99.90
10492;DHT22;5293;51.464;-2.566;2024-02-28T14:22:44;11.10;99.90
10492;DHT22;5293;51.464;-2.566;2024-02-28T14:25:15;11.10;99.90
10492;DHT22;5293;51.464;-2.566;2024-02-28T14:27:43;11.20;99.90
10492;DHT22;5293;51.464;-2.566;2024-02-28T14:30:10;11.20;99.90
10492;DHT22;5293;51.464;-2.566;2024-02-28T14:32:36;11.20;99.90
10492;DHT22;5293;51.464;-2.566;2024-02-28T14:35:06;11.30;99.90
10492;DHT22;5293;51.464;-2.566;2024-02-28T14:37:36;11.30;99.90
10492;DHT22;5293;51.464;-2.566;2024-02-28T14:40:03;11.40;99.90
10492;DHT22;5293;51.464;-2.566;2024-02-28T14:42:32;11.40;99.90
10492;DHT22;5293;51.464;-2.566;2024-02-28T14:44:59;11.40;99.90
10492;DHT22;5293;51.464;-2.566;2024-02-28T14:47:25;11.40;99.90
10492;DHT22;5293;51.464;-2.566;2024-02-28T14:49:50;11.40;99.90
10492;DHT22;5293;51.464;-2.566;2024-02-28T14:52:16;11.40;99.90
10492;DHT22;5293;51.464;-2.566;2024-02-28T14:54:42;11.50;99.90
10492;DHT22;5293;51.464;-2.566;2024-02-28T14:57:10;11.50;99.90
10492;DHT22;5293;51.464;-2.566;2024-02-28T14:59:35;11.50;99.90
10492;DHT22;5293;51.464;-2.566;2024-02-28T15:02:01;11.50;99.90
10492;DHT22;5293;51.464;-2.566;2024-02-28T15:04:27;11.60;99.90
10492;DHT22;5293;51.464;-2.566;2024-02-28T15:06:52;11.60;99.90
10492;DHT22;5293;51.464;-2.566;2024-02-28T15:09:21;11.60;99.90
10492;DHT22;5293;51.464;-2.566;2024-02-28T15:11:50;11.60;99.90
10492;DHT22;5293;51.464;-2.566;2024-02-28T15:14:16;11.70;99.90
10492;DHT22;5293;51.464;-2.566;2024-02-28T15:16:42;11.70;99.90
10492;DHT22;5293;51.464;-2.566;2024-02-28T15:19:08;11.70;99.90
10492;DHT22;5293;51.464;-2.566;2024-02-28T15:21:37;11.70;99.90
10492;DHT22;5293;51.464;-2.566;2024-02-28T15:24:02;11.70;99.90
10492;DHT22;5293;51.464;-2.566;2024-02-28T15:26:29;11.70;99.90
10492;DHT22;5293;51.464;-2.566;2024-02-28T15:28:55;11.70;99.90
10492;DHT22;5293;51.464;-2.566;2024-02-28T15:31:21;11.80;99.90
10492;DHT22;5293;51.464;-2.566;2024-02-28T15:33:48;11.70;99.90